PWSweather.com
Personal Weather Stations
Station Observations
OBERT
Bodensee Hinterland, OberteuringenDE

Bodensee HinterlandOberteuringenDE

Lat: 47.714675, Lon: 9.44447

Elevation: 1427

Station Type: Wunder Weather Station

High Low Average
Temperature 50.5°F10.3°C 36.6°F2.6°C 40.6°F4.8°C
Dew Point 46.6°F8.1°C 36.6°F2.6°C 40.0°F4.4°C
Winds 4.2 mph 6.8 kmh Calm Calm 1.0 mph SSW1.6 kmh SSW
Wind Gusts 7.8 mph12.6 kmh -- 3.0 mph4.8 kmh
Humidity 100% 76% 98%
Pressure 29.86 in1011.2 mb 29.61 in1002.7 mb -
Precipitation 0.00 in0.0 mm - -
Hour Temp Dew Point Humidity Winds Wind Gusts Pressure Precip Precip Rate Daily Precip Total
12:01 AM 40.1°F4.5°C 40.1°F4.5°C 100% Calm Calm -- 29.62 in1003.0 mb 0.00 in0.0 mm 0.00 in0.0 mm 0.00 in0.0 mm
12:31 AM 39.9°F4.4°C 39.9°F4.4°C 100% Calm Calm -- 29.62 in1003.0 mb 0.00 in0.0 mm 0.00 in0.0 mm 0.00 in0.0 mm
01:01 AM 39.5°F4.2°C 39.5°F4.2°C 100% Calm Calm -- 29.61 in1002.7 mb 0.00 in0.0 mm 0.00 in0.0 mm 0.00 in0.0 mm
01:31 AM 39.7°F4.3°C 39.7°F4.3°C 100% Calm Calm -- 29.62 in1003.0 mb 0.00 in0.0 mm 0.00 in0.0 mm 0.00 in0.0 mm
02:01 AM 39.2°F4.0°C 39.2°F4.0°C 100% 2.9 mph SSW4.7 kmh SSW 6.8 mph10.9 kmh 29.62 in1003.0 mb 0.00 in0.0 mm 0.00 in0.0 mm 0.00 in0.0 mm
02:31 AM 38.6°F3.7°C 38.6°F3.7°C 100% 1.7 mph W2.7 kmh W 2.5 mph4.0 kmh 29.63 in1003.4 mb 0.00 in0.0 mm 0.00 in0.0 mm 0.00 in0.0 mm
03:01 AM 39.0°F3.9°C 39.0°F3.9°C 100% 2.1 mph SSE3.4 kmh SSE 4.6 mph7.4 kmh 29.63 in1003.4 mb 0.00 in0.0 mm 0.00 in0.0 mm 0.00 in0.0 mm
03:31 AM 39.2°F4.0°C 39.2°F4.0°C 100% Calm Calm -- 29.63 in1003.4 mb 0.00 in0.0 mm 0.00 in0.0 mm 0.00 in0.0 mm
04:01 AM 39.2°F4.0°C 39.2°F4.0°C 100% 3.8 mph S6.1 kmh S 5.3 mph8.5 kmh 29.62 in1003.0 mb 0.00 in0.0 mm 0.00 in0.0 mm 0.00 in0.0 mm
04:31 AM 39.2°F4.0°C 39.2°F4.0°C 100% 2.5 mph S4.0 kmh S 5.0 mph8.0 kmh 29.64 in1003.7 mb 0.00 in0.0 mm 0.00 in0.0 mm 0.00 in0.0 mm
05:01 AM 39.3°F4.1°C 39.3°F4.1°C 100% 0.8 mph SW1.3 kmh SW 2.8 mph4.5 kmh 29.65 in1004.1 mb 0.00 in0.0 mm 0.00 in0.0 mm 0.00 in0.0 mm
05:31 AM 38.8°F3.8°C 38.8°F3.8°C 100% 1.4 mph SW2.3 kmh SW 5.3 mph8.5 kmh 29.65 in1004.1 mb 0.00 in0.0 mm 0.00 in0.0 mm 0.00 in0.0 mm
06:01 AM 38.8°F3.8°C 38.8°F3.8°C 100% 3.3 mph SSW5.3 kmh SSW 5.6 mph9.0 kmh 29.67 in1004.7 mb 0.00 in0.0 mm 0.00 in0.0 mm 0.00 in0.0 mm
06:13 AM 38.8°F3.8°C 38.8°F3.8°C 100% 1.0 mph SW1.6 kmh SW 4.0 mph6.4 kmh 29.68 in1005.1 mb 0.00 in0.0 mm 0.00 in0.0 mm 0.00 in0.0 mm
06:43 AM 38.8°F3.8°C 38.8°F3.8°C 100% Calm Calm 2.5 mph4.0 kmh 29.70 in1005.8 mb 0.00 in0.0 mm 0.00 in0.0 mm 0.00 in0.0 mm
07:13 AM 38.8°F3.8°C 38.8°F3.8°C 100% 0.3 mph SW0.5 kmh SW 2.1 mph3.4 kmh 29.71 in1006.1 mb 0.00 in0.0 mm 0.00 in0.0 mm 0.00 in0.0 mm
07:43 AM 38.4°F3.6°C 38.4°F3.6°C 100% 4.2 mph S6.8 kmh S 7.8 mph12.6 kmh 29.72 in1006.4 mb 0.00 in0.0 mm 0.00 in0.0 mm 0.00 in0.0 mm
08:13 AM 38.4°F3.6°C 38.4°F3.6°C 100% 0.2 mph W0.3 kmh W 2.8 mph4.5 kmh 29.74 in1007.1 mb 0.00 in0.0 mm 0.00 in0.0 mm 0.00 in0.0 mm
08:43 AM 38.6°F3.7°C 38.6°F3.7°C 100% 0.7 mph SSW1.1 kmh SSW 4.3 mph6.9 kmh 29.75 in1007.5 mb 0.00 in0.0 mm 0.00 in0.0 mm 0.00 in0.0 mm
09:13 AM 39.3°F4.1°C 39.3°F4.1°C 100% Calm Calm 3.7 mph6.0 kmh 29.77 in1008.1 mb 0.00 in0.0 mm 0.00 in0.0 mm 0.00 in0.0 mm
09:43 AM 40.1°F4.5°C 40.1°F4.5°C 100% Calm Calm 2.8 mph4.5 kmh 29.77 in1008.1 mb 0.00 in0.0 mm 0.00 in0.0 mm 0.00 in0.0 mm
10:13 AM 41.0°F5.0°C 41.0°F5.0°C 100% Calm Calm 1.2 mph1.9 kmh 29.79 in1008.8 mb 0.00 in0.0 mm 0.00 in0.0 mm 0.00 in0.0 mm
10:43 AM 41.1°F5.1°C 41.1°F5.1°C 100% Calm Calm -- 29.80 in1009.1 mb 0.00 in0.0 mm 0.00 in0.0 mm 0.00 in0.0 mm
11:13 AM 44.6°F7.0°C 44.6°F7.0°C 100% Calm Calm -- 29.81 in1009.5 mb 0.00 in0.0 mm 0.00 in0.0 mm 0.00 in0.0 mm
11:43 AM 46.7°F8.2°C 46.6°F8.1°C 99% Calm Calm -- 29.81 in1009.5 mb 0.00 in0.0 mm 0.00 in0.0 mm 0.00 in0.0 mm
12:13 PM 44.7°F7.1°C 44.5°F6.9°C 99% Calm Calm -- 29.81 in1009.5 mb 0.00 in0.0 mm 0.00 in0.0 mm 0.00 in0.0 mm
12:43 PM 50.0°F10.0°C 46.0°F7.8°C 86% 0.8 mph SW1.3 kmh SW 2.8 mph4.5 kmh 29.81 in1009.5 mb 0.00 in0.0 mm 0.00 in0.0 mm 0.00 in0.0 mm
01:13 PM 48.9°F9.4°C 42.8°F6.0°C 79% Calm Calm 2.1 mph3.4 kmh 29.80 in1009.1 mb 0.00 in0.0 mm 0.00 in0.0 mm 0.00 in0.0 mm
01:43 PM 46.9°F8.3°C 43.4°F6.3°C 87% Calm Calm 2.8 mph4.5 kmh 29.79 in1008.8 mb 0.00 in0.0 mm 0.00 in0.0 mm 0.00 in0.0 mm
02:13 PM 50.5°F10.3°C 43.3°F6.3°C 76% Calm Calm -- 29.80 in1009.1 mb 0.00 in0.0 mm 0.00 in0.0 mm 0.00 in0.0 mm
02:43 PM 47.8°F8.8°C 43.1°F6.2°C 83% Calm Calm -- 29.81 in1009.5 mb 0.00 in0.0 mm 0.00 in0.0 mm 0.00 in0.0 mm
03:13 PM 46.4°F8.0°C 43.6°F6.4°C 90% 3.4 mph SSE5.5 kmh SSE 5.3 mph8.5 kmh 29.82 in1009.8 mb 0.00 in0.0 mm 0.00 in0.0 mm 0.00 in0.0 mm
03:43 PM 46.2°F7.9°C 44.1°F6.7°C 92% 0.8 mph SW1.3 kmh SW 4.3 mph6.9 kmh 29.84 in1010.5 mb 0.00 in0.0 mm 0.00 in0.0 mm 0.00 in0.0 mm
04:13 PM 44.9°F7.2°C 44.0°F6.7°C 96% 2.1 mph SE3.4 kmh SE 5.9 mph9.5 kmh 29.84 in1010.5 mb 0.00 in0.0 mm 0.00 in0.0 mm 0.00 in0.0 mm
04:43 PM 41.9°F5.5°C 41.4°F5.2°C 98% Calm Calm -- 29.84 in1010.5 mb 0.00 in0.0 mm 0.00 in0.0 mm 0.00 in0.0 mm
05:13 PM 40.8°F4.9°C 40.8°F4.9°C 100% 1.5 mph SE2.4 kmh SE 4.3 mph6.9 kmh 29.84 in1010.5 mb 0.00 in0.0 mm 0.00 in0.0 mm 0.00 in0.0 mm
05:43 PM 38.4°F3.6°C 38.4°F3.6°C 100% 1.1 mph SW1.8 kmh SW 2.1 mph3.4 kmh 29.84 in1010.5 mb 0.00 in0.0 mm 0.00 in0.0 mm 0.00 in0.0 mm
06:13 PM 37.4°F3.0°C 37.4°F3.0°C 100% 1.4 mph WNW2.3 kmh WNW 2.1 mph3.4 kmh 29.84 in1010.5 mb 0.00 in0.0 mm 0.00 in0.0 mm 0.00 in0.0 mm
06:43 PM 37.0°F2.8°C 37.0°F2.8°C 100% Calm Calm 1.8 mph2.9 kmh 29.86 in1011.2 mb 0.00 in0.0 mm 0.00 in0.0 mm 0.00 in0.0 mm
07:13 PM 37.5°F3.1°C 37.5°F3.1°C 100% 0.4 mph W0.6 kmh W 1.5 mph2.4 kmh 29.85 in1010.8 mb 0.00 in0.0 mm 0.00 in0.0 mm 0.00 in0.0 mm
07:43 PM 37.0°F2.8°C 37.0°F2.8°C 100% 0.6 mph WSW1.0 kmh WSW 2.8 mph4.5 kmh 29.85 in1010.8 mb 0.00 in0.0 mm 0.00 in0.0 mm 0.00 in0.0 mm
08:13 PM 36.6°F2.6°C 36.6°F2.6°C 100% 0.8 mph WSW1.3 kmh WSW 3.4 mph5.5 kmh 29.84 in1010.5 mb 0.00 in0.0 mm 0.00 in0.0 mm 0.00 in0.0 mm
08:43 PM 37.0°F2.8°C 37.0°F2.8°C 100% 1.4 mph SW2.3 kmh SW 2.8 mph4.5 kmh 29.85 in1010.8 mb 0.00 in0.0 mm 0.00 in0.0 mm 0.00 in0.0 mm
09:13 PM 37.0°F2.8°C 37.0°F2.8°C 100% 0.8 mph SW1.3 kmh SW 5.0 mph8.0 kmh 29.85 in1010.8 mb 0.00 in0.0 mm 0.00 in0.0 mm 0.00 in0.0 mm
09:43 PM 37.7°F3.2°C 37.7°F3.2°C 100% 0.9 mph WSW1.4 kmh WSW 5.3 mph8.5 kmh 29.84 in1010.5 mb 0.00 in0.0 mm 0.00 in0.0 mm 0.00 in0.0 mm
10:13 PM 37.9°F3.3°C 37.9°F3.3°C 100% 2.7 mph SW4.3 kmh SW 6.2 mph10.0 kmh 29.83 in1010.2 mb 0.00 in0.0 mm 0.00 in0.0 mm 0.00 in0.0 mm
10:43 PM 37.4°F3.0°C 37.4°F3.0°C 100% 2.7 mph SW4.3 kmh SW 4.3 mph6.9 kmh 29.84 in1010.5 mb 0.00 in0.0 mm 0.00 in0.0 mm 0.00 in0.0 mm
11:13 PM 38.3°F3.5°C 38.3°F3.5°C 100% 3.5 mph SSW5.6 kmh SSW 7.8 mph12.6 kmh 29.84 in1010.5 mb 0.00 in0.0 mm 0.00 in0.0 mm 0.00 in0.0 mm
11:43 PM 38.1°F3.4°C 38.1°F3.4°C 100% 4.1 mph SSE6.6 kmh SSE 7.8 mph12.6 kmh 29.84 in1010.5 mb 0.00 in0.0 mm 0.00 in0.0 mm 0.00 in0.0 mm